EGEC/CAL METAR and TAF weather

Enter ICAO airport designator
Station Type Date Time Source
EGEC METAR 2018/06/24 17:20 UTC NOAA

EGEC 241720Z 29004KT 260V340 CAVOK 16/10 Q1025


Station Type Date Time Source
EGEC Decoded METAR 2018/06/24 17:20 UTC NOAA

Campbeltown, United Kingdom (EGEC) 55-26-14N 005-41-11W
Jun 24, 2018 - 01:20 PM EDT / 2018.06.24 1720 UTC
Wind: from the WNW (290 degrees) at 5 MPH (4 KT) (direction variable):0
Visibility: greater than 7 mile(s):0
Temperature: 60 F (16 C)
Dew Point: 50 F (10 C)
Relative Humidity: 67%
Pressure (altimeter): 30.27 in. Hg (1025 hPa)
ob: EGEC 241720Z 29004KT 260V340 CAVOK 16/10 Q1025
cycle: 17

Station Type Date Time Source
EGEC TAF UTC NOAA

Error!


Example: see airport list